createdAt,value
2022-08-30T00:01:24.358Z,1.80
2022-08-30T00:03:55.063Z,1.70
2022-08-30T00:06:24.437Z,2.00
2022-08-30T00:08:52.541Z,2.10
2022-08-30T00:11:27.906Z,1.70
2022-08-30T00:13:56.686Z,1.80
2022-08-30T00:16:26.568Z,2.00
2022-08-30T00:18:53.952Z,2.10
2022-08-30T00:21:21.873Z,1.80
2022-08-30T00:23:48.977Z,1.60
2022-08-30T00:26:16.347Z,1.80
2022-08-30T00:28:43.095Z,1.70
2022-08-30T00:31:10.385Z,1.50
2022-08-30T00:33:40.527Z,1.80
2022-08-30T00:36:07.662Z,1.90
2022-08-30T00:38:34.462Z,1.50
2022-08-30T00:41:01.530Z,2.40
2022-08-30T00:43:34.184Z,2.00
2022-08-30T00:46:08.188Z,1.80
2022-08-30T00:48:41.187Z,1.70
2022-08-30T00:51:12.774Z,1.80
2022-08-30T00:53:46.483Z,1.60
2022-08-30T00:56:14.273Z,1.80
2022-08-30T00:58:47.695Z,1.50
2022-08-30T01:01:15.132Z,1.70
2022-08-30T01:03:43.973Z,1.70
2022-08-30T01:06:15.534Z,1.60
2022-08-30T01:08:44.307Z,1.70
2022-08-30T01:11:15.075Z,1.60
2022-08-30T01:13:43.450Z,1.80
2022-08-30T01:16:10.940Z,1.60
2022-08-30T01:18:39.658Z,1.70
2022-08-30T01:21:32.756Z,1.70
2022-08-30T01:24:02.166Z,1.80
2022-08-30T01:26:30.813Z,1.70
2022-08-30T01:29:05.131Z,1.70
2022-08-30T01:31:34.631Z,1.40
2022-08-30T01:34:03.213Z,1.70
2022-08-30T01:36:30.181Z,1.60
2022-08-30T01:38:58.359Z,1.80
2022-08-30T01:41:36.268Z,1.90
2022-08-30T01:44:11.094Z,1.70
2022-08-30T01:46:45.878Z,2.00
2022-08-30T01:49:27.503Z,2.00
2022-08-30T01:52:01.071Z,1.40
2022-08-30T01:54:37.009Z,1.80
2022-08-30T01:57:08.140Z,1.80
2022-08-30T01:59:35.329Z,1.60
2022-08-30T02:02:03.248Z,1.60
2022-08-30T02:04:30.369Z,2.40
2022-08-30T02:06:57.286Z,2.30
2022-08-30T02:09:24.400Z,1.80
2022-08-30T02:11:52.046Z,1.70
2022-08-30T02:14:18.852Z,2.20
2022-08-30T02:16:48.769Z,1.80
2022-08-30T02:19:16.560Z,1.80
2022-08-30T02:21:43.450Z,1.90
2022-08-30T02:24:10.888Z,2.10
2022-08-30T02:26:37.697Z,1.70
2022-08-30T02:29:06.233Z,1.70
2022-08-30T02:31:33.677Z,1.50
2022-08-30T02:34:01.270Z,2.10
2022-08-30T02:36:28.393Z,1.90
2022-08-30T02:38:55.198Z,1.80
2022-08-30T02:41:23.780Z,1.70
2022-08-30T02:43:51.415Z,2.20
2022-08-30T02:46:19.104Z,1.70
2022-08-30T02:48:46.033Z,1.70
2022-08-30T02:51:14.692Z,2.00
2022-08-30T02:53:44.087Z,1.60
2022-08-30T02:56:13.738Z,2.10
2022-08-30T02:58:42.608Z,1.70
2022-08-30T03:01:13.796Z,1.80
2022-08-30T03:03:43.576Z,1.90
2022-08-30T03:06:10.604Z,2.10
2022-08-30T03:08:38.189Z,2.20
2022-08-30T03:11:06.275Z,2.10
2022-08-30T03:13:33.282Z,2.20
2022-08-30T03:16:00.137Z,1.90
2022-08-30T03:18:26.953Z,2.10
2022-08-30T03:20:54.524Z,1.90
2022-08-30T03:23:24.170Z,2.00
2022-08-30T03:25:53.697Z,1.80
2022-08-30T03:28:20.852Z,2.20
2022-08-30T03:30:48.170Z,2.30
2022-08-30T03:33:15.705Z,1.90
2022-08-30T03:35:42.771Z,2.00
2022-08-30T03:38:09.724Z,2.50
2022-08-30T03:40:36.851Z,2.50
2022-08-30T03:43:05.452Z,2.80
2022-08-30T03:45:32.613Z,2.90
2022-08-30T03:47:59.784Z,3.20
2022-08-30T03:50:26.806Z,2.20
2022-08-30T03:52:53.667Z,2.90
2022-08-30T03:55:21.065Z,2.90
2022-08-30T03:57:48.069Z,3.20
2022-08-30T04:00:19.053Z,2.80
2022-08-30T04:02:46.023Z,3.20
2022-08-30T04:05:14.764Z,3.30
2022-08-30T04:07:46.437Z,3.20
2022-08-30T04:10:13.419Z,3.30
2022-08-30T04:12:40.207Z,2.80
2022-08-30T04:15:10.494Z,2.40
2022-08-30T04:17:37.599Z,3.40
2022-08-30T04:20:05.079Z,3.30
2022-08-30T04:22:31.949Z,2.80
2022-08-30T04:24:58.766Z,3.10
2022-08-30T04:27:25.632Z,3.00
2022-08-30T04:29:54.176Z,3.80
2022-08-30T04:32:23.379Z,3.50
2022-08-30T04:34:50.345Z,3.80
2022-08-30T04:37:17.214Z,3.60
2022-08-30T04:39:44.312Z,3.70
2022-08-30T04:42:11.509Z,3.40
2022-08-30T04:44:38.416Z,3.50
2022-08-30T04:47:05.268Z,3.40
2022-08-30T04:49:33.209Z,3.80
2022-08-30T04:51:59.977Z,3.30
2022-08-30T04:54:26.883Z,3.40
2022-08-30T04:56:53.941Z,3.90
2022-08-30T04:59:22.246Z,3.30
2022-08-30T05:01:49.136Z,3.80
2022-08-30T05:04:16.023Z,4.30
2022-08-30T05:06:43.385Z,3.50
2022-08-30T05:09:10.270Z,3.60
2022-08-30T05:11:38.244Z,3.90
2022-08-30T05:14:06.122Z,3.60
2022-08-30T05:16:32.977Z,3.70
2022-08-30T05:19:00.351Z,4.20
2022-08-30T05:21:29.298Z,3.80
2022-08-30T05:24:00.138Z,3.60
2022-08-30T05:26:34.446Z,4.20
2022-08-30T05:29:01.819Z,4.40
2022-08-30T05:31:36.816Z,3.90
2022-08-30T05:34:05.541Z,3.90
2022-08-30T05:36:36.626Z,3.80
2022-08-30T05:39:06.463Z,3.80
2022-08-30T05:41:33.680Z,3.90
2022-08-30T05:44:03.268Z,3.50
2022-08-30T05:46:35.492Z,4.00
2022-08-30T05:49:06.319Z,3.60
2022-08-30T05:51:43.108Z,4.00
2022-08-30T05:54:13.783Z,3.40
2022-08-30T05:56:45.355Z,3.60
2022-08-30T05:59:13.431Z,3.20
2022-08-30T06:01:47.125Z,3.80
2022-08-30T06:04:15.228Z,3.40
2022-08-30T06:06:44.451Z,3.50
2022-08-30T06:09:13.614Z,3.90
2022-08-30T06:11:41.762Z,3.90
2022-08-30T06:14:09.097Z,3.90
2022-08-30T06:16:40.236Z,4.10
2022-08-30T06:19:10.972Z,3.50
2022-08-30T06:21:40.555Z,3.20
2022-08-30T06:24:10.998Z,4.20
2022-08-30T06:26:42.656Z,3.80
2022-08-30T06:29:13.321Z,3.10
2022-08-30T06:31:40.487Z,3.60
2022-08-30T06:34:08.298Z,4.10
2022-08-30T06:36:35.787Z,3.90
2022-08-30T06:39:03.666Z,4.00
2022-08-30T06:41:37.349Z,3.60
2022-08-30T06:44:12.052Z,3.40
2022-08-30T06:46:39.481Z,4.20
2022-08-30T06:49:07.803Z,4.00
2022-08-30T06:51:39.789Z,4.00
2022-08-30T06:54:10.843Z,4.00
2022-08-30T06:56:48.736Z,3.10
2022-08-30T06:59:25.486Z,3.80
2022-08-30T07:01:54.808Z,4.10
2022-08-30T07:04:21.688Z,3.10
2022-08-30T07:06:48.476Z,4.60
2022-08-30T07:09:15.458Z,3.60
2022-08-30T07:11:42.493Z,3.60
2022-08-30T07:14:09.363Z,3.90
2022-08-30T07:16:36.553Z,3.80
2022-08-30T07:19:05.434Z,3.30
2022-08-30T07:21:38.216Z,3.40
2022-08-30T07:24:08.853Z,3.60
2022-08-30T07:26:49.894Z,4.10
2022-08-30T07:29:19.392Z,3.00
2022-08-30T07:31:46.268Z,3.40
2022-08-30T07:34:13.156Z,3.10
2022-08-30T07:36:40.218Z,3.20
2022-08-30T07:39:09.186Z,3.30
2022-08-30T07:41:38.933Z,3.20
2022-08-30T07:44:08.528Z,3.40
2022-08-30T07:46:38.020Z,3.20
2022-08-30T07:49:11.275Z,3.00
2022-08-30T07:51:40.217Z,3.10
2022-08-30T07:54:07.958Z,3.40
2022-08-30T07:56:36.228Z,3.10
2022-08-30T07:59:03.821Z,2.90
2022-08-30T08:01:31.082Z,2.80
2022-08-30T08:03:57.974Z,3.00
2022-08-30T08:06:25.528Z,2.80
2022-08-30T08:08:54.264Z,2.60
2022-08-30T08:11:27.571Z,2.60
2022-08-30T08:13:57.564Z,2.20
2022-08-30T08:16:30.178Z,2.90
2022-08-30T08:18:57.677Z,2.70
2022-08-30T08:21:27.279Z,2.60
2022-08-30T08:23:54.498Z,2.90
2022-08-30T08:26:22.583Z,2.90
2022-08-30T08:28:49.592Z,2.70
2022-08-30T08:31:22.101Z,2.90
2022-08-30T08:33:56.419Z,2.80
2022-08-30T08:36:23.298Z,2.00
2022-08-30T08:38:50.287Z,2.20
2022-08-30T08:41:59.831Z,2.50
2022-08-30T08:45:11.683Z,2.80
2022-08-30T08:48:02.649Z,2.60
2022-08-30T08:50:32.535Z,2.50
2022-08-30T08:53:50.713Z,2.10
2022-08-30T08:56:22.812Z,2.50
2022-08-30T08:58:54.650Z,3.00
2022-08-30T09:01:26.150Z,2.00
2022-08-30T09:03:53.342Z,2.30
2022-08-30T09:06:56.989Z,2.40
2022-08-30T09:09:34.193Z,1.90
2022-08-30T09:12:01.769Z,2.60
2022-08-30T09:14:36.195Z,2.10
2022-08-30T09:17:11.776Z,2.40
2022-08-30T09:19:54.177Z,1.80
2022-08-30T09:22:46.740Z,2.10
2022-08-30T09:25:13.650Z,2.40
2022-08-30T09:27:47.965Z,3.20
2022-08-30T09:30:28.709Z,3.30
2022-08-30T09:33:02.441Z,3.30
2022-08-30T09:35:46.764Z,2.70
2022-08-30T09:38:26.364Z,2.70
2022-08-30T09:40:58.734Z,2.00
2022-08-30T09:43:33.566Z,2.10
2022-08-30T09:46:00.283Z,2.00
2022-08-30T09:48:46.165Z,2.10
2022-08-30T09:51:13.350Z,1.80
2022-08-30T09:57:35.311Z,1.70
2022-08-30T10:00:15.547Z,2.00
2022-08-30T10:03:26.271Z,1.60
2022-08-30T10:06:06.366Z,1.70
2022-08-30T10:08:57.545Z,1.50
2022-08-30T10:11:59.551Z,1.70
2022-08-30T10:14:57.198Z,1.50
2022-08-30T10:17:51.917Z,1.10
2022-08-30T10:21:19.544Z,2.00
2022-08-30T10:23:53.997Z,1.70
2022-08-30T10:26:23.726Z,1.60
2022-08-30T10:29:03.652Z,1.80
2022-08-30T10:31:59.492Z,1.60
2022-08-30T10:34:46.387Z,1.80
2022-08-30T10:37:25.179Z,2.40
2022-08-30T10:40:00.982Z,2.00
2022-08-30T10:42:39.825Z,1.70
2022-08-30T10:45:16.667Z,1.80
2022-08-30T10:48:01.725Z,2.30
2022-08-30T10:50:41.328Z,2.10
2022-08-30T10:53:29.152Z,2.30
2022-08-30T10:56:07.194Z,2.50
2022-08-30T10:58:36.662Z,2.30
2022-08-30T11:01:24.538Z,2.50
2022-08-30T11:04:07.419Z,2.30
2022-08-30T11:07:09.993Z,2.40
2022-08-30T11:09:39.736Z,2.20
2022-08-30T11:12:25.211Z,2.20
2022-08-30T11:14:54.251Z,2.00
2022-08-30T11:17:35.699Z,2.30
2022-08-30T11:20:21.352Z,2.10
2022-08-30T11:23:18.902Z,2.50
2022-08-30T11:26:15.963Z,2.30
2022-08-30T11:28:47.545Z,2.90
2022-08-30T11:31:23.722Z,2.30
2022-08-30T11:33:52.030Z,2.30
2022-08-30T11:36:46.054Z,2.40
2022-08-30T11:39:42.828Z,2.30
2022-08-30T11:42:35.372Z,2.70
2022-08-30T11:45:47.106Z,2.80
2022-08-30T11:48:54.105Z,2.20
2022-08-30T11:55:17.117Z,2.90
2022-08-30T11:57:55.089Z,2.70
2022-08-30T12:00:40.726Z,2.50
2022-08-30T12:03:32.616Z,3.00
2022-08-30T12:06:06.729Z,2.90
2022-08-30T12:08:34.198Z,2.70
2022-08-30T12:11:28.071Z,2.60
2022-08-30T12:13:56.457Z,2.80
2022-08-30T12:17:07.893Z,2.60
2022-08-30T12:19:34.634Z,2.80
2022-08-30T12:22:08.344Z,2.80
2022-08-30T12:24:43.820Z,2.20
2022-08-30T12:27:33.694Z,2.80
2022-08-30T12:30:08.265Z,2.70
2022-08-30T12:32:50.580Z,2.80
2022-08-30T12:35:28.379Z,2.40
2022-08-30T12:38:06.604Z,2.80
2022-08-30T12:40:37.516Z,2.40
2022-08-30T12:43:17.401Z,2.20
2022-08-30T12:45:50.926Z,2.90
2022-08-30T12:48:20.630Z,2.40
2022-08-30T12:50:54.679Z,2.50
2022-08-30T12:53:28.166Z,2.20
2022-08-30T12:56:02.218Z,2.30
2022-08-30T12:58:58.502Z,2.60
2022-08-30T13:01:26.560Z,2.90
2022-08-30T13:04:27.001Z,2.70
2022-08-30T13:06:58.368Z,2.60
2022-08-30T13:09:43.208Z,2.40
2022-08-30T13:12:24.051Z,2.80
2022-08-30T13:14:53.651Z,2.70
2022-08-30T13:17:28.934Z,2.30
2022-08-30T13:20:17.184Z,2.60
2022-08-30T13:23:24.356Z,2.50
2022-08-30T13:25:51.340Z,2.50
2022-08-30T13:28:18.472Z,2.60
2022-08-30T13:30:45.355Z,2.80
2022-08-30T13:33:13.198Z,2.30
2022-08-30T13:35:40.091Z,2.90
2022-08-30T13:38:06.942Z,2.90
2022-08-30T13:40:33.951Z,3.00
2022-08-30T13:43:01.376Z,2.60
2022-08-30T13:45:43.640Z,3.20
2022-08-30T13:48:13.587Z,3.00
2022-08-30T13:50:41.005Z,2.90
2022-08-30T13:53:09.440Z,2.80
2022-08-30T13:55:39.882Z,2.50
2022-08-30T13:58:07.837Z,3.00
2022-08-30T14:00:37.727Z,3.40
2022-08-30T14:03:05.455Z,3.20
2022-08-30T14:05:48.942Z,2.70
2022-08-30T14:08:47.701Z,3.10
2022-08-30T14:11:19.015Z,3.30
2022-08-30T14:16:42.185Z,3.20
2022-08-30T14:19:12.442Z,2.90
2022-08-30T14:21:39.683Z,3.60
2022-08-30T14:24:07.452Z,3.80
2022-08-30T14:26:45.843Z,4.10
2022-08-30T14:29:18.546Z,4.00
2022-08-30T14:31:45.762Z,4.20
2022-08-30T14:34:14.205Z,3.80
2022-08-30T14:36:43.889Z,4.10
2022-08-30T14:39:15.877Z,4.60
2022-08-30T14:41:53.275Z,6.10
2022-08-30T14:44:22.492Z,5.20
2022-08-30T14:46:51.117Z,5.10
2022-08-30T14:49:20.112Z,5.70
2022-08-30T14:51:48.644Z,6.00
2022-08-30T14:54:25.426Z,4.70
2022-08-30T14:56:53.547Z,6.00
2022-08-30T14:59:20.728Z,5.40
2022-08-30T15:01:48.433Z,5.10
2022-08-30T15:04:16.365Z,5.30
2022-08-30T15:06:47.289Z,6.00
2022-08-30T15:09:23.346Z,5.20
2022-08-30T15:11:55.045Z,6.00
2022-08-30T15:14:24.524Z,7.00
2022-08-30T15:16:55.409Z,6.90
2022-08-30T15:19:22.174Z,5.90
2022-08-30T15:21:49.293Z,5.20
2022-08-30T15:24:29.360Z,4.80
2022-08-30T15:26:56.913Z,5.20
2022-08-30T15:29:24.581Z,4.40
2022-08-30T15:31:52.907Z,5.10
2022-08-30T15:34:27.902Z,5.30
2022-08-30T15:36:55.309Z,4.10
2022-08-30T15:39:22.164Z,4.20
2022-08-30T15:41:54.714Z,3.50
2022-08-30T15:44:24.320Z,3.40
2022-08-30T15:46:51.349Z,3.60
2022-08-30T15:49:23.771Z,4.00
2022-08-30T15:51:54.444Z,3.30
2022-08-30T15:54:23.585Z,4.10
2022-08-30T15:56:59.072Z,3.80
2022-08-30T15:59:31.868Z,2.90
2022-08-30T16:01:59.751Z,3.10
2022-08-30T16:04:26.787Z,3.80
2022-08-30T16:06:54.360Z,4.70
2022-08-30T16:09:22.134Z,4.70
2022-08-30T16:11:49.689Z,4.70
2022-08-30T16:14:16.522Z,5.70
2022-08-30T16:16:43.576Z,6.70
2022-08-30T16:19:10.550Z,6.20
2022-08-30T16:21:39.866Z,7.10
2022-08-30T16:24:10.549Z,8.00
2022-08-30T16:26:42.994Z,8.10
2022-08-30T16:29:12.432Z,7.90
2022-08-30T16:31:40.897Z,8.70
2022-08-30T16:34:07.762Z,8.40
2022-08-30T16:36:36.069Z,8.70
2022-08-30T16:39:08.501Z,8.90
2022-08-30T16:41:37.290Z,8.20
2022-08-30T16:44:06.347Z,7.00
2022-08-30T16:46:34.916Z,6.00
2022-08-30T16:49:02.848Z,5.10
2022-08-30T16:51:32.607Z,4.00
2022-08-30T16:54:07.628Z,3.60
2022-08-30T16:56:37.840Z,3.20
2022-08-30T16:59:10.857Z,3.00
2022-08-30T17:01:39.294Z,2.60
2022-08-30T17:04:08.314Z,2.40
2022-08-30T17:06:36.606Z,2.20
2022-08-30T17:09:05.985Z,2.20
2022-08-30T17:11:37.309Z,2.60
2022-08-30T17:14:05.585Z,2.10
2022-08-30T17:16:35.490Z,2.30
2022-08-30T17:19:06.871Z,2.20
2022-08-30T17:21:35.204Z,1.90
2022-08-30T17:24:03.460Z,1.80
2022-08-30T17:26:33.022Z,1.50
2022-08-30T17:29:00.045Z,1.50
2022-08-30T17:31:31.097Z,1.40
2022-08-30T17:34:03.356Z,1.50
2022-08-30T17:36:35.532Z,1.70
2022-08-30T17:39:10.992Z,1.70
2022-08-30T17:41:45.221Z,1.60
2022-08-30T17:44:17.224Z,1.50
2022-08-30T17:46:45.046Z,1.60
2022-08-30T17:49:12.054Z,1.50
2022-08-30T17:51:42.533Z,1.30
2022-08-30T17:54:12.784Z,1.50
2022-08-30T17:56:41.652Z,1.20
2022-08-30T17:59:11.562Z,1.30
2022-08-30T18:01:42.140Z,1.40
2022-08-30T18:04:11.634Z,1.40
2022-08-30T18:06:39.947Z,1.30
2022-08-30T18:09:08.973Z,1.10
2022-08-30T18:11:41.960Z,1.10
2022-08-30T18:14:12.770Z,1.20
2022-08-30T18:16:47.445Z,1.20
2022-08-30T18:19:20.279Z,1.10
2022-08-30T18:21:47.154Z,0.90
2022-08-30T18:24:14.112Z,1.10
2022-08-30T18:26:42.942Z,1.30
2022-08-30T18:29:10.636Z,1.20
2022-08-30T18:31:37.622Z,1.30
2022-08-30T18:34:04.562Z,1.50
2022-08-30T18:36:31.618Z,0.90
2022-08-30T18:38:58.819Z,1.10
2022-08-30T18:41:26.534Z,1.20
2022-08-30T18:44:10.982Z,1.30
2022-08-30T18:46:51.233Z,1.40
2022-08-30T18:49:23.846Z,1.10
2022-08-30T18:51:50.644Z,1.20
2022-08-30T18:54:17.696Z,1.70
2022-08-30T18:56:46.544Z,1.40
2022-08-30T18:59:13.507Z,1.10
2022-08-30T19:01:41.377Z,1.30
2022-08-30T19:04:08.201Z,1.30
2022-08-30T19:06:37.711Z,1.20
2022-08-30T19:09:09.271Z,1.30
2022-08-30T19:11:38.300Z,1.10
2022-08-30T19:14:06.979Z,1.50
2022-08-30T19:16:36.052Z,1.00
2022-08-30T19:19:04.635Z,1.40
2022-08-30T19:21:31.747Z,1.20
2022-08-30T19:23:58.623Z,1.20
2022-08-30T19:26:27.449Z,1.30
2022-08-30T19:28:54.762Z,1.10
2022-08-30T19:31:21.626Z,1.30
2022-08-30T19:33:48.492Z,1.50
2022-08-30T19:36:15.611Z,1.20
2022-08-30T19:38:44.562Z,1.00
2022-08-30T19:41:12.740Z,1.10
2022-08-30T19:43:40.434Z,0.80
2022-08-30T19:46:08.625Z,1.20
2022-08-30T19:48:43.006Z,1.00
2022-08-30T19:51:13.793Z,1.00
2022-08-30T19:53:42.152Z,0.90
2022-08-30T19:56:09.186Z,0.90
2022-08-30T19:58:36.194Z,0.90
2022-08-30T20:01:11.786Z,0.90
2022-08-30T20:03:40.296Z,1.00
2022-08-30T20:06:08.911Z,1.00
2022-08-30T20:08:37.306Z,0.80
2022-08-30T20:11:05.467Z,1.20
2022-08-30T20:13:33.706Z,1.00
2022-08-30T20:16:01.622Z,1.20
2022-08-30T20:18:29.185Z,0.80
2022-08-30T20:20:56.948Z,1.00
2022-08-30T20:23:25.593Z,0.80
2022-08-30T20:25:55.573Z,1.00
2022-08-30T20:28:25.154Z,1.10
2022-08-30T20:30:54.418Z,0.70
2022-08-30T20:33:24.428Z,1.00
2022-08-30T20:35:52.205Z,0.80
2022-08-30T20:38:22.091Z,0.80
2022-08-30T20:40:53.700Z,1.10
2022-08-30T20:43:23.493Z,0.90
2022-08-30T20:45:51.109Z,0.60
2022-08-30T20:48:19.893Z,0.80
2022-08-30T20:50:46.913Z,0.70
2022-08-30T20:53:16.079Z,0.80
2022-08-30T20:55:47.410Z,1.00
2022-08-30T20:58:14.582Z,0.90
2022-08-30T21:00:45.823Z,0.90
2022-08-30T21:03:27.451Z,0.90
2022-08-30T21:05:56.739Z,0.90
2022-08-30T21:08:23.855Z,0.70
2022-08-30T21:10:50.722Z,0.90
2022-08-30T21:13:17.608Z,1.00
2022-08-30T21:15:46.242Z,0.80
2022-08-30T21:18:15.961Z,1.00
2022-08-30T21:20:43.037Z,0.90
2022-08-30T21:23:10.275Z,0.80
2022-08-30T21:25:42.825Z,0.70
2022-08-30T21:28:10.318Z,0.80
2022-08-30T21:30:37.894Z,0.60
2022-08-30T21:33:07.360Z,0.70
2022-08-30T21:35:55.494Z,0.90
2022-08-30T21:38:23.474Z,0.70
2022-08-30T21:40:50.575Z,0.80
2022-08-30T21:43:17.497Z,0.80
2022-08-30T21:45:45.811Z,0.80
2022-08-30T21:48:14.398Z,0.90
2022-08-30T21:50:43.319Z,0.60
2022-08-30T21:53:10.932Z,0.70
2022-08-30T21:55:42.158Z,0.90
2022-08-30T21:58:10.864Z,0.60
2022-08-30T22:00:37.660Z,0.80
2022-08-30T22:03:04.604Z,0.90
2022-08-30T22:05:31.790Z,0.80
2022-08-30T22:07:58.771Z,0.60
2022-08-30T22:10:28.999Z,0.90
2022-08-30T22:12:58.291Z,0.80
2022-08-30T22:15:26.776Z,1.00
2022-08-30T22:17:53.699Z,0.80
2022-08-30T22:20:20.489Z,0.70
2022-08-30T22:22:47.585Z,0.80
2022-08-30T22:25:14.317Z,1.00
2022-08-30T22:27:41.148Z,0.90
2022-08-30T22:30:08.936Z,0.90
2022-08-30T22:32:38.287Z,0.80
2022-08-30T22:35:06.698Z,0.90
2022-08-30T22:37:34.107Z,0.80
2022-08-30T22:40:00.946Z,0.70
2022-08-30T22:42:27.701Z,1.10
2022-08-30T22:44:54.452Z,0.60
2022-08-30T22:47:21.237Z,0.80
2022-08-30T22:49:48.103Z,0.70
2022-08-30T22:52:14.874Z,0.70
2022-08-30T22:54:41.685Z,0.90
2022-08-30T22:57:09.188Z,0.80
2022-08-30T22:59:36.920Z,0.70
2022-08-30T23:02:04.059Z,0.90
2022-08-30T23:04:31.138Z,0.70
2022-08-30T23:06:57.876Z,0.80
2022-08-30T23:09:24.596Z,0.80
2022-08-30T23:11:51.367Z,0.80
2022-08-30T23:14:18.151Z,0.70
2022-08-30T23:16:45.287Z,0.90
2022-08-30T23:19:12.842Z,0.80
2022-08-30T23:21:39.692Z,0.60
2022-08-30T23:24:25.267Z,1.00
2022-08-30T23:27:10.638Z,0.60
2022-08-30T23:29:56.485Z,0.80
2022-08-30T23:32:42.530Z,0.70
2022-08-30T23:35:32.039Z,0.90
2022-08-30T23:38:21.665Z,0.70
2022-08-30T23:41:07.456Z,0.70
2022-08-30T23:43:54.057Z,0.60
2022-08-30T23:46:40.189Z,0.90
2022-08-30T23:49:25.862Z,0.70
2022-08-30T23:52:11.773Z,0.90
2022-08-30T23:54:57.419Z,0.70
2022-08-30T23:57:45.306Z,0.70
